Time;durP1;ratioP1;P1;durP2;ratioP2;P2;SDS_P1;SDS_P2;PMS_P1;PMS_P2;Temp;Humidity;BMP_temperature;BMP_pressure;BME280_temperature;BME280_humidity;BME280_pressure;Samples;Min_cycle;Max_cycle;Signal;HPM_P1;HPM_P2
2021/12/15 00:01:07;;;;;;;2.03;0.90;;;;;;;9.31;100.00;99867.03;4929157;29;20039;-85
2021/12/15 00:03:33;;;;;;;1.48;0.80;;;;;;;9.22;100.00;99862.78;4894764;29;20044;-84
2021/12/15 00:05:59;;;;;;;2.67;1.10;;;;;;;9.21;100.00;99869.81;4919293;29;20474;-84
2021/12/15 00:08:25;;;;;;;1.63;0.73;;;;;;;9.08;100.00;99867.69;4900990;29;20091;-84
2021/12/15 00:10:51;;;;;;;0.90;0.85;;;;;;;8.94;100.00;99855.25;4913783;29;20043;-84
2021/12/15 00:13:18;;;;;;;0.95;0.70;;;;;;;8.84;100.00;99852.78;4897443;29;20032;-84
2021/12/15 00:15:46;;;;;;;2.03;0.85;;;;;;;8.82;100.00;99871.28;4916041;29;20106;-85
2021/12/15 00:18:13;;;;;;;1.50;0.68;;;;;;;8.84;100.00;99873.72;4928251;29;20036;-83
2021/12/15 00:20:40;;;;;;;1.23;0.90;;;;;;;8.79;100.00;99876.88;4897297;29;20446;-83
2021/12/15 00:23:06;;;;;;;1.00;0.90;;;;;;;8.68;100.00;99867.53;4896451;29;20043;-82
2021/12/15 00:25:36;;;;;;;1.70;1.05;;;;;;;8.66;100.00;99876.50;4891688;29;20040;-83
2021/12/15 00:28:03;;;;;;;2.08;1.33;;;;;;;8.73;100.00;99876.69;4918131;29;20044;-82
2021/12/15 00:30:29;;;;;;;1.30;1.08;;;;;;;8.70;100.00;99881.25;4913112;29;20039;-84
2021/12/15 00:32:55;;;;;;;1.38;1.13;;;;;;;8.71;100.00;99861.97;4898847;29;20040;-82
2021/12/15 00:35:22;;;;;;;3.47;1.40;;;;;;;8.71;100.00;99856.72;4907177;29;20434;-83
2021/12/15 00:37:49;;;;;;;1.17;1.00;;;;;;;8.81;100.00;99881.91;4928363;29;20406;-82
2021/12/15 00:40:18;;;;;;;1.30;1.20;;;;;;;8.79;100.00;99882.09;4923759;29;20063;-83
2021/12/15 00:42:45;;;;;;;1.35;0.95;;;;;;;8.88;100.00;99882.09;4911068;29;20122;-83
2021/12/15 00:45:12;;;;;;;1.25;1.15;;;;;;;8.93;100.00;99885.03;4907523;29;20036;-82
2021/12/15 00:47:39;;;;;;;1.10;0.90;;;;;;;8.93;100.00;99872.78;4910828;29;20032;-82
2021/12/15 00:50:08;;;;;;;1.05;0.95;;;;;;;8.98;100.00;99859.19;4925012;29;20501;-82
2021/12/15 00:52:36;;;;;;;2.15;1.00;;;;;;;8.93;100.00;99866.69;4911463;29;20423;-83
2021/12/15 00:55:05;;;;;;;0.80;0.80;;;;;;;8.88;100.00;99869.84;4894132;29;20403;-84
2021/12/15 00:57:31;;;;;;;2.30;1.00;;;;;;;8.81;100.00;99858.34;4921537;29;20062;-83
2021/12/15 00:59:58;;;;;;;1.02;0.98;;;;;;;8.90;100.00;99878.34;4898334;29;20131;-83
2021/12/15 01:02:26;;;;;;;0.90;0.90;;;;;;;8.77;100.00;99846.56;4916126;29;20545;-84
2021/12/15 01:04:55;;;;;;;1.58;0.90;;;;;;;8.85;100.00;99870.16;4918344;29;20059;-84
2021/12/15 01:07:21;;;;;;;1.13;1.02;;;;;;;8.81;100.00;99864.44;4893136;29;20043;-85
2021/12/15 01:09:54;;;;;;;1.77;1.10;;;;;;;8.64;100.00;99853.09;4893352;29;20035;-84
2021/12/15 01:20:56;;;;;;;1.20;1.10;;;;;;;8.25;100.00;99848.41;4926425;29;20047;-85
2021/12/15 01:23:26;;;;;;;1.00;0.90;;;;;;;8.18;100.00;99839.56;4892347;29;20043;-84
2021/12/15 01:25:58;;;;;;;0.70;0.70;;;;;;;8.19;100.00;99849.06;4918015;29;20035;-84
2021/12/15 01:28:25;;;;;;;1.20;0.98;;;;;;;8.03;100.00;99845.41;4910329;29;20040;-84
2021/12/15 01:30:55;;;;;;;1.10;0.80;;;;;;;7.89;100.00;99841.59;4894319;29;20040;-85
2021/12/15 01:33:24;;;;;;;1.75;0.60;;;;;;;8.00;100.00;99843.09;4912152;29;20039;-83
2021/12/15 01:35:51;;;;;;;0.82;0.65;;;;;;;7.95;100.00;99812.19;4914336;29;20059;-84
2021/12/15 01:38:20;;;;;;;0.60;0.60;;;;;;;7.88;100.00;99826.88;4932795;29;20130;-85
2021/12/15 01:40:46;;;;;;;0.98;0.82;;;;;;;8.02;100.00;99819.44;4921323;29;20032;-84
2021/12/15 01:43:23;;;;;;;2.47;0.80;;;;;;;8.02;100.00;99815.00;4901241;29;20032;-84
2021/12/15 01:48:39;;;;;;;0.60;0.60;;;;;;;7.86;100.00;99798.31;4927796;29;20032;-86
2021/12/15 01:51:07;;;;;;;0.80;0.55;;;;;;;7.98;100.00;99796.22;4899141;29;20044;-84
2021/12/15 01:53:34;;;;;;;0.70;0.50;;;;;;;8.08;100.00;99830.06;4896436;29;20127;-84
2021/12/15 01:56:02;;;;;;;5.90;1.05;;;;;;;8.08;100.00;99806.53;4898119;29;20028;-84
2021/12/15 01:58:32;;;;;;;0.50;0.50;;;;;;;8.01;100.00;99789.84;4895347;29;20435;-86
2021/12/15 02:01:03;;;;;;;1.85;0.75;;;;;;;8.04;100.00;99802.59;4919159;29;20512;-82
2021/12/15 02:03:29;;;;;;;1.45;0.80;;;;;;;7.85;100.00;99770.50;4917334;29;20392;-82
2021/12/15 02:05:55;;;;;;;3.80;0.82;;;;;;;7.92;100.00;99796.03;4934356;29;20088;-86
2021/12/15 02:08:21;;;;;;;0.57;0.52;;;;;;;7.93;100.00;99802.91;4895336;29;20035;-85
2021/12/15 02:10:48;;;;;;;0.80;0.80;;;;;;;7.96;100.00;99797.34;4892799;29;20040;-86
2021/12/15 02:13:16;;;;;;;1.55;0.90;;;;;;;7.84;100.00;99804.66;4913006;29;20034;-85
2021/12/15 02:15:46;;;;;;;1.15;0.90;;;;;;;7.84;100.00;99813.31;4915944;29;20043;-86
2021/12/15 02:18:16;;;;;;;1.80;0.98;;;;;;;7.97;100.00;99877.41;4916949;29;20549;-85
2021/12/15 02:20:52;;;;;;;1.20;0.73;;;;;;;7.83;100.00;99805.63;4918589;29;20416;-85
2021/12/15 02:23:22;;;;;;;1.15;0.77;;;;;;;7.91;100.00;99862.38;4897981;29;20035;-85
2021/12/15 02:25:49;;;;;;;1.50;0.90;;;;;;;7.87;100.00;99809.56;4907241;29;20077;-85
2021/12/15 02:28:18;;;;;;;0.95;0.60;;;;;;;7.90;100.00;99824.94;4926734;29;20051;-85
2021/12/15 02:38:42;;;;;;;3.92;0.80;;;;;;;7.80;100.00;99861.66;4931016;29;20495;-84
2021/12/15 02:41:19;;;;;;;1.90;0.80;;;;;;;7.91;100.00;99862.38;4910172;29;20102;-86
2021/12/15 02:43:50;;;;;;;1.58;0.80;;;;;;;7.91;100.00;99873.63;4929403;29;20044;-84
2021/12/15 02:46:16;;;;;;;1.50;0.55;;;;;;;7.82;100.00;99878.00;4913662;29;20039;-84
2021/12/15 02:48:42;;;;;;;1.60;0.70;;;;;;;7.85;100.00;99877.66;4896131;29;20091;-83
2021/12/15 02:51:10;;;;;;;1.40;0.70;;;;;;;7.86;100.00;99918.56;4913103;29;20032;-84
2021/12/15 02:53:36;;;;;;;2.38;0.70;;;;;;;7.81;100.00;99893.84;4919026;29;20039;-85
2021/12/15 02:56:07;;;;;;;0.88;0.70;;;;;;;7.73;100.00;99881.53;4902225;29;20056;-84
2021/12/15 02:58:36;;;;;;;0.75;0.63;;;;;;;7.85;100.00;99923.91;4923192;29;20036;-83
2021/12/15 03:01:13;;;;;;;1.00;0.70;;;;;;;7.88;100.00;99935.88;4919371;29;20486;-84
2021/12/15 03:04:10;;;;;;;2.13;0.88;;;;;;;7.98;100.00;99944.41;4915675;29;20036;-82
2021/12/15 03:06:58;;;;;;;0.70;0.68;;;;;;;8.01;100.00;99938.88;4916858;29;20044;-83
2021/12/15 03:17:22;;;;;;;0.95;0.80;;;;;;;8.08;100.00;99941.69;4924198;29;20491;-86
2021/12/15 03:19:47;;;;;;;2.03;1.00;;;;;;;8.24;100.00;99964.47;4925192;29;20083;-86
2021/12/15 03:22:13;;;;;;;1.90;0.90;;;;;;;8.33;100.00;99971.41;4924198;29;20036;-86
2021/12/15 03:24:42;;;;;;;2.55;0.82;;;;;;;8.43;100.00;99977.31;4913062;29;20449;-84
2021/12/15 03:27:15;;;;;;;1.52;0.90;;;;;;;8.41;100.00;99966.19;4936495;29;20099;-85
2021/12/15 03:37:53;;;;;;;4.30;1.00;;;;;;;8.44;100.00;99970.28;4915523;29;20163;-85
2021/12/15 03:40:24;;;;;;;4.07;0.73;;;;;;;8.55;100.00;99979.69;4917157;29;20059;-84
2021/12/15 03:43:01;;;;;;;1.73;0.82;;;;;;;8.54;100.00;99983.28;4933037;29;20402;-84
2021/12/15 03:45:31;;;;;;;4.13;1.20;;;;;;;8.53;100.00;99976.41;4913155;29;20479;-85
2021/12/15 03:48:01;;;;;;;1.13;0.80;;;;;;;8.48;100.00;99968.19;4900419;29;20076;-84
2021/12/15 03:50:28;;;;;;;2.72;0.82;;;;;;;8.59;100.00;99978.38;4898314;29;20091;-86
2021/12/15 03:52:54;;;;;;;0.77;0.70;;;;;;;8.57;100.00;99973.34;4915505;29;20040;-87
2021/12/15 03:55:23;;;;;;;2.67;0.70;;;;;;;8.55;100.00;99958.75;4922011;29;20427;-86
2021/12/15 03:57:50;;;;;;;1.95;1.05;;;;;;;8.51;100.00;99944.34;4915011;29;20031;-84
2021/12/15 04:00:18;;;;;;;3.83;1.20;;;;;;;8.63;100.00;99966.63;4931443;29;20379;-83
2021/12/15 04:02:44;;;;;;;2.88;1.30;;;;;;;8.67;100.00;99975.81;4928700;29;20087;-82
2021/12/15 04:05:12;;;;;;;7.78;1.58;;;;;;;8.71;100.00;99973.69;4906338;29;20447;-84
2021/12/15 04:07:41;;;;;;;1.70;0.90;;;;;;;8.71;100.00;99982.38;4928357;29;20059;-85
2021/12/15 04:10:11;;;;;;;5.07;0.90;;;;;;;8.80;100.00;99972.75;4915375;29;20081;-85
2021/12/15 04:12:37;;;;;;;2.42;1.02;;;;;;;8.78;100.00;99972.09;4915767;29;20031;-85
2021/12/15 04:15:26;;;;;;;2.95;0.98;;;;;;;8.75;100.00;99976.81;4932732;29;20031;-85
2021/12/15 04:17:58;;;;;;;2.25;0.80;;;;;;;8.71;100.00;99974.50;4934316;29;20036;-85
2021/12/15 04:20:27;;;;;;;4.72;1.15;;;;;;;8.85;100.00;99980.94;4930073;29;20505;-84
2021/12/15 04:22:53;;;;;;;4.88;1.08;;;;;;;8.71;100.00;99984.97;4912528;29;20031;-84
2021/12/15 04:25:25;;;;;;;4.07;1.02;;;;;;;8.63;100.00;99982.31;4920483;29;20478;-83
2021/12/15 04:28:04;;;;;;;5.47;1.58;;;;;;;8.56;100.00;99982.16;4903997;29;20040;-84
2021/12/15 04:30:33;;;;;;;2.70;0.93;;;;;;;8.40;100.00;99982.88;4901940;29;20045;-85
2021/12/15 04:33:07;;;;;;;2.30;0.77;;;;;;;8.33;100.00;99976.63;4914108;29;20489;-84
2021/12/15 04:35:35;;;;;;;6.07;1.08;;;;;;;8.15;100.00;99969.66;4911121;29;20048;-83
2021/12/15 04:38:01;;;;;;;2.92;0.65;;;;;;;8.02;100.00;99984.16;4923034;29;20059;-84
2021/12/15 04:40:27;;;;;;;4.18;0.98;;;;;;;7.87;100.00;99976.84;4929914;29;20038;-83
2021/12/15 04:42:54;;;;;;;2.55;1.05;;;;;;;7.75;100.00;99978.91;4904189;29;20059;-84
2021/12/15 04:45:22;;;;;;;4.50;0.95;;;;;;;7.51;100.00;99969.91;4932899;29;20055;-83
2021/12/15 04:47:51;;;;;;;2.38;1.02;;;;;;;7.58;100.00;99984.00;4919311;29;20448;-84
2021/12/15 04:50:22;;;;;;;1.33;0.63;;;;;;;7.51;100.00;99976.91;4910039;29;20482;-85
2021/12/15 04:52:48;;;;;;;3.20;0.90;;;;;;;7.56;100.00;99972.88;4926645;29;20032;-84
2021/12/15 04:55:14;;;;;;;5.07;1.23;;;;;;;7.51;100.00;99980.38;4911418;29;20054;-84
2021/12/15 04:57:40;;;;;;;7.68;0.80;;;;;;;7.47;100.00;99981.66;4927577;29;20040;-84
2021/12/15 05:00:08;;;;;;;5.07;1.30;;;;;;;7.37;100.00;99991.34;4912109;29;20091;-85
2021/12/15 05:02:35;;;;;;;4.10;0.93;;;;;;;7.43;100.00;99990.72;4917533;29;20529;-84
2021/12/15 05:05:02;;;;;;;2.00;1.25;;;;;;;7.47;100.00;99992.09;4896317;29;20043;-83
2021/12/15 05:07:28;;;;;;;1.60;0.93;;;;;;;7.56;100.00;99972.88;4898036;29;20114;-85
2021/12/15 05:09:55;;;;;;;2.50;1.20;;;;;;;7.68;100.00;99977.88;4910983;29;20063;-85
2021/12/15 05:12:21;;;;;;;3.33;0.80;;;;;;;7.97;100.00;99997.66;4893588;29;20040;-85
2021/12/15 05:14:47;;;;;;;4.75;0.90;;;;;;;8.07;100.00;100003.63;4930578;29;20408;-85
2021/12/15 05:17:13;;;;;;;3.65;0.60;;;;;;;8.16;100.00;100012.34;4898190;29;20083;-86
2021/12/15 05:19:38;;;;;;;5.43;0.80;;;;;;;8.32;100.00;100009.00;4906482;29;20031;-83
2021/12/15 05:22:05;;;;;;;2.33;1.00;;;;;;;8.41;100.00;100013.28;4927251;29;20042;-84
2021/12/15 05:24:33;;;;;;;4.78;1.10;;;;;;;8.54;100.00;100012.88;4929480;29;20044;-84
2021/12/15 05:27:08;;;;;;;0.90;0.70;;;;;;;8.61;100.00;100025.34;4887758;29;20040;-84
2021/12/15 05:29:34;;;;;;;3.75;0.80;;;;;;;8.67;100.00;100019.47;4918790;29;20047;-84
2021/12/15 05:32:00;;;;;;;3.72;0.80;;;;;;;8.76;100.00;100022.94;4906044;29;20040;-85
2021/12/15 05:34:26;;;;;;;2.40;0.60;;;;;;;8.75;100.00;100013.47;4908382;29;20390;-84
2021/12/15 05:36:53;;;;;;;3.00;0.98;;;;;;;8.73;100.00;100021.44;4909337;29;20044;-84
2021/12/15 05:39:20;;;;;;;4.35;1.17;;;;;;;8.75;100.00;100022.16;4907225;29;20028;-84
2021/12/15 05:41:46;;;;;;;9.27;1.30;;;;;;;8.71;100.00;100016.41;4915968;29;20064;-84
2021/12/15 05:44:13;;;;;;;2.80;0.60;;;;;;;8.77;100.00;100020.19;4910405;29;20032;-84
2021/12/15 05:46:39;;;;;;;3.28;0.70;;;;;;;8.77;100.00;100024.59;4903332;29;20099;-83
2021/12/15 05:49:05;;;;;;;5.43;0.73;;;;;;;8.81;100.00;100034.59;4903599;29;20454;-84
2021/12/15 05:51:32;;;;;;;3.03;1.02;;;;;;;8.75;100.00;100037.84;4906434;29;20119;-87
2021/12/15 05:53:57;;;;;;;1.70;0.90;;;;;;;8.82;100.00;100038.00;4926820;29;20526;-85
2021/12/15 05:56:23;;;;;;;4.00;0.95;;;;;;;8.75;100.00;100031.78;4924690;29;20040;-86
2021/12/15 05:58:49;;;;;;;1.38;0.68;;;;;;;8.77;100.00;100035.88;4938099;29;20031;-88
2021/12/15 06:01:15;;;;;;;3.10;0.75;;;;;;;8.78;100.00;100039.31;4907248;29;20047;-87
2021/12/15 06:03:41;;;;;;;1.88;0.80;;;;;;;8.77;100.00;100045.53;4906651;29;20040;-86
2021/12/15 06:06:07;;;;;;;4.28;0.68;;;;;;;8.67;100.00;100032.56;4901608;29;20044;-87
2021/12/15 06:08:33;;;;;;;2.63;0.70;;;;;;;8.83;100.00;100047.50;4908309;29;20028;-86
2021/12/15 06:10:58;;;;;;;2.33;0.75;;;;;;;8.87;100.00;100054.09;4888227;29;20032;-84
2021/12/15 06:13:26;;;;;;;2.72;0.80;;;;;;;8.82;100.00;100048.47;4905314;29;20123;-83
2021/12/15 06:15:54;;;;;;;2.70;1.00;;;;;;;8.88;100.00;100057.50;4897892;29;20436;-83
2021/12/15 06:18:20;;;;;;;1.83;0.90;;;;;;;8.81;100.00;100057.31;4904097;29;20058;-84
2021/12/15 06:20:48;;;;;;;4.00;1.23;;;;;;;8.92;100.00;100070.13;4908257;29;20078;-85
2021/12/15 06:23:19;;;;;;;2.72;1.02;;;;;;;8.87;100.00;100061.94;4928994;29;20355;-86
2021/12/15 06:25:49;;;;;;;4.43;3.15;;;;;;;8.81;100.00;100044.22;4902929;29;20032;-83
2021/12/15 06:28:15;;;;;;;5.78;3.03;;;;;;;8.95;100.00;100080.28;4895800;29;20418;-85
2021/12/15 06:30:42;;;;;;;5.13;2.05;;;;;;;8.94;100.00;100076.03;4929198;29;20102;-86
2021/12/15 06:33:07;;;;;;;3.03;2.08;;;;;;;8.93;100.00;100073.56;4921707;29;20505;-85
2021/12/15 06:35:35;;;;;;;2.10;1.80;;;;;;;8.90;100.00;100071.25;4921278;29;20036;-85
2021/12/15 06:38:02;;;;;;;3.15;2.10;;;;;;;8.83;100.00;100077.13;4922282;29;20095;-84
2021/12/15 06:40:27;;;;;;;4.05;2.15;;;;;;;8.90;100.00;100093.03;4925144;29;20042;-85
2021/12/15 06:42:53;;;;;;;4.15;1.98;;;;;;;8.87;100.00;100088.13;4924979;29;20035;-85
2021/12/15 06:45:23;;;;;;;3.28;1.60;;;;;;;8.76;100.00;100084.00;4935155;29;20086;-86
2021/12/15 06:58:56;;;;;;;2.75;0.70;;;;;;;8.65;100.00;100095.56;4925236;29;20071;-85
2021/12/15 07:01:22;;;;;;;1.48;1.15;;;;;;;8.85;100.00;100106.59;4914859;29;20121;-85
2021/12/15 07:03:49;;;;;;;4.97;1.02;;;;;;;8.88;100.00;100104.63;4903698;29;20039;-85
2021/12/15 07:06:15;;;;;;;2.95;1.33;;;;;;;8.91;100.00;100093.84;4917642;29;20032;-85
2021/12/15 07:08:41;;;;;;;2.97;2.25;;;;;;;8.89;100.00;100086.16;4918048;29;20079;-87
2021/12/15 07:11:07;;;;;;;4.93;2.70;;;;;;;8.90;100.00;100087.81;4911615;29;20027;-85
2021/12/15 07:13:34;;;;;;;2.33;1.83;;;;;;;9.03;100.00;100110.09;4930227;29;20466;-85
2021/12/15 07:16:01;;;;;;;4.57;2.40;;;;;;;8.94;100.00;100096.16;4902512;29;20031;-86
2021/12/15 07:18:40;;;;;;;3.90;2.78;;;;;;;9.00;100.00;100106.00;4914917;29;20031;-84
2021/12/15 07:21:16;;;;;;;4.55;3.40;;;;;;;8.94;100.00;100106.63;4918774;29;20028;-85
2021/12/15 07:23:43;;;;;;;6.50;4.32;;;;;;;9.05;100.00;100103.72;4914750;29;20085;-86
2021/12/15 07:26:08;;;;;;;5.93;3.35;;;;;;;9.06;100.00;100108.00;4901895;29;20374;-85
2021/12/15 07:28:35;;;;;;;4.90;2.80;;;;;;;9.10;100.00;100124.22;4924745;29;20031;-86
2021/12/15 07:31:00;;;;;;;2.75;2.20;;;;;;;9.08;100.00;100110.47;4912222;29;20052;-85
2021/12/15 07:33:26;;;;;;;4.82;1.95;;;;;;;9.07;100.00;100114.06;4891740;29;20091;-85
2021/12/15 07:35:53;;;;;;;2.78;1.52;;;;;;;8.87;100.00;100103.84;4922317;29;20047;-84
2021/12/15 07:38:18;;;;;;;5.30;1.50;;;;;;;8.75;100.00;100107.69;4928038;29;20044;-84
2021/12/15 07:40:44;;;;;;;5.80;1.40;;;;;;;8.67;100.00;100113.69;4908055;29;20046;-84
2021/12/15 07:43:18;;;;;;;2.60;1.10;;;;;;;8.53;100.00;100107.25;4905282;29;20055;-83
2021/12/15 07:45:50;;;;;;;3.63;1.63;;;;;;;8.57;100.00;100119.88;4913319;29;20035;-85
2021/12/15 07:48:17;;;;;;;5.53;2.50;;;;;;;8.67;100.00;100124.16;4896149;29;20032;-84
2021/12/15 07:50:45;;;;;;;3.45;1.23;;;;;;;8.66;100.00;100115.50;4893907;29;20043;-84
2021/12/15 07:53:13;;;;;;;3.67;1.02;;;;;;;8.79;100.00;100127.34;4915677;29;20092;-83
2021/12/15 07:55:40;;;;;;;1.63;1.05;;;;;;;8.69;100.00;100120.44;4893400;29;20031;-83
2021/12/15 07:58:07;;;;;;;4.65;0.88;;;;;;;8.56;100.00;100104.31;4925883;29;20035;-81
2021/12/15 08:00:35;;;;;;;2.20;1.00;;;;;;;8.50;100.00;100128.50;4925569;29;20043;-81
2021/12/15 08:03:00;;;;;;;2.08;0.90;;;;;;;8.36;100.00;100122.00;4926688;29;20079;-82
2021/12/15 08:05:27;;;;;;;3.60;1.10;;;;;;;8.29;100.00;100127.03;4915281;29;20501;-82
2021/12/15 08:07:53;;;;;;;4.50;0.88;;;;;;;8.07;100.00;100107.41;4924698;29;20474;-83
2021/12/15 08:10:18;;;;;;;1.98;0.90;;;;;;;8.11;100.00;100127.88;4915516;29;20035;-84
2021/12/15 08:12:45;;;;;;;1.50;0.77;;;;;;;8.10;100.00;100128.84;4908838;29;20031;-83
2021/12/15 08:15:13;;;;;;;3.30;1.08;;;;;;;7.97;100.00;100128.41;4901785;29;20032;-82
2021/12/15 08:17:41;;;;;;;2.20;0.82;;;;;;;7.76;100.00;100132.13;4894812;29;20059;-82
2021/12/15 08:20:09;;;;;;;1.27;0.65;;;;;;;7.63;100.00;100111.59;4920766;29;20066;-81
2021/12/15 08:22:35;;;;;;;2.83;0.68;;;;;;;7.76;100.00;100132.13;4909015;29;20039;-81
2021/12/15 08:25:01;;;;;;;4.57;1.23;;;;;;;7.71;100.00;100131.75;4907185;29;20039;-82
2021/12/15 08:27:26;;;;;;;1.67;1.55;;;;;;;7.62;100.00;100130.88;4919652;29;20035;-80
2021/12/15 08:29:52;;;;;;;3.65;1.00;;;;;;;7.58;100.00;100130.31;4908512;29;20032;-81
2021/12/15 08:32:18;;;;;;;2.88;1.00;;;;;;;7.49;100.00;100141.69;4910420;29;20031;-81
2021/12/15 08:34:43;;;;;;;3.90;1.10;;;;;;;7.40;100.00;100137.31;4894335;29;20440;-83
2021/12/15 08:37:14;;;;;;;3.25;0.88;;;;;;;7.46;100.00;100143.75;4928239;29;20498;-79
2021/12/15 08:39:44;;;;;;;2.42;0.95;;;;;;;7.41;100.00;100131.13;4925589;29;20023;-81
2021/12/15 08:42:11;;;;;;;4.30;1.30;;;;;;;7.36;100.00;100120.31;4908134;29;20032;-80
2021/12/15 08:44:40;;;;;;;4.75;1.17;;;;;;;7.31;100.00;100112.91;4902350;29;20465;-82
2021/12/15 08:47:07;;;;;;;3.67;0.93;;;;;;;7.42;100.00;100144.06;4932671;29;20498;-81
2021/12/15 08:49:34;;;;;;;3.35;1.13;;;;;;;7.42;100.00;100144.06;4892897;29;20483;-81
2021/12/15 08:52:00;;;;;;;4.95;1.30;;;;;;;7.46;100.00;100146.38;4923635;29;20036;-83
2021/12/15 08:54:26;;;;;;;5.25;1.38;;;;;;;7.50;100.00;100147.72;4908084;29;20032;-82
2021/12/15 08:56:53;;;;;;;3.35;1.75;;;;;;;7.42;100.00;100153.66;4923363;29;20039;-82
2021/12/15 08:59:19;;;;;;;6.05;1.30;;;;;;;7.48;100.00;100157.50;4898146;29;20039;-82
2021/12/15 09:01:45;;;;;;;4.18;1.55;;;;;;;7.36;100.00;100135.97;4907949;29;20035;-84
2021/12/15 09:04:13;;;;;;;3.10;1.45;;;;;;;7.48;100.00;100150.47;4907757;29;20522;-84
2021/12/15 09:06:39;;;;;;;4.07;1.45;;;;;;;7.50;100.00;100140.72;4904990;29;20036;-81
2021/12/15 09:09:07;;;;;;;6.72;1.50;;;;;;;7.74;100.00;100159.38;4909200;29;20042;-81
2021/12/15 09:11:33;;;;;;;2.47;1.23;;;;;;;7.74;100.00;100155.00;4894355;29;20398;-81
2021/12/15 09:14:01;;;;;;;6.82;1.58;;;;;;;7.78;100.00;100156.31;4887924;29;20032;-77
2021/12/15 09:16:30;;;;;;;5.18;1.38;;;;;;;7.90;100.00;100161.34;4891114;29;20039;-79
2021/12/15 09:18:56;;;;;;;3.42;1.50;;;;;;;7.91;100.00;100149.91;4920649;29;20678;-79
2021/12/15 09:21:24;;;;;;;6.32;1.20;;;;;;;8.01;100.00;100145.41;4890909;29;20035;-79
2021/12/15 09:23:50;;;;;;;2.80;1.63;;;;;;;8.05;100.00;100156.41;4891623;29;20437;-80
2021/12/15 09:26:17;;;;;;;6.03;2.47;;;;;;;8.09;100.00;100153.34;4907067;29;20084;-80
2021/12/15 09:28:42;;;;;;;4.72;2.08;;;;;;;8.03;100.00;100163.59;4900715;29;20387;-80
2021/12/15 09:31:09;;;;;;;4.13;1.70;;;;;;;7.90;100.00;100151.69;4921989;29;20039;-79
2021/12/15 09:33:42;;;;;;;3.03;2.08;;;;;;;7.82;100.00;100157.66;4923820;29;20114;-80
2021/12/15 09:36:10;;;;;;;9.60;2.00;;;;;;;7.93;100.00;100153.19;4909921;29;20532;-79
2021/12/15 09:38:36;;;;;;;6.43;1.70;;;;;;;8.05;100.00;100172.91;4901197;29;20544;-81
2021/12/15 09:41:04;;;;;;;4.70;1.83;;;;;;;8.15;100.00;100168.44;4895668;29;20522;-82
2021/12/15 09:43:31;;;;;;;5.82;2.05;;;;;;;8.17;100.00;100172.69;4905953;29;20525;-79
2021/12/15 09:46:11;;;;;;;6.05;1.88;;;;;;;8.09;100.00;100179.50;4892404;29;20487;-81
2021/12/15 10:02:41;;;;;;;9.02;2.05;;;;;;;7.98;100.00;100171.88;4926244;29;20115;-79
2021/12/15 10:05:39;;;;;;;10.10;1.88;;;;;;;8.15;100.00;100188.53;4907598;29;20493;-81
2021/12/15 10:11:18;;;;;;;6.80;1.63;;;;;;;8.26;100.00;100201.38;4909601;29;20044;-81
2021/12/15 10:19:24;;;;;;;5.18;1.40;;;;;;;8.52;100.00;100189.34;4915494;29;20457;-81
2021/12/15 10:21:58;;;;;;;4.43;1.55;;;;;;;8.76;100.00;100208.81;4901550;29;20043;-85
2021/12/15 10:24:28;;;;;;;5.50;1.48;;;;;;;8.71;100.00;100181.31;4914433;29;20031;-83
2021/12/15 10:26:58;;;;;;;3.60;1.17;;;;;;;8.92;100.00;100185.34;4916112;29;20051;-82
2021/12/15 10:29:24;;;;;;;6.35;1.73;;;;;;;9.16;100.00;100215.25;4915690;29;20027;-85
2021/12/15 10:32:04;;;;;;;5.38;1.48;;;;;;;9.29;100.00;100218.28;4910403;29;20040;-84
2021/12/15 10:34:31;;;;;;;4.45;1.52;;;;;;;9.26;100.00;100196.81;4937758;29;20529;-85
2021/12/15 10:36:57;;;;;;;5.20;1.45;;;;;;;9.27;100.00;100194.03;4916472;29;20029;-83
2021/12/15 10:39:23;;;;;;;7.03;1.75;;;;;;;9.39;100.00;100212.09;4913430;29;20030;-84
2021/12/15 10:41:53;;;;;;;7.38;2.17;;;;;;;9.19;100.00;100193.97;4912193;29;20032;-80
2021/12/15 10:44:24;;;;;;;8.43;1.75;;;;;;;9.11;100.00;100184.28;4920352;29;20036;-81
2021/12/15 10:46:58;;;;;;;7.53;1.73;;;;;;;9.32;100.00;100213.69;4912112;29;20040;-81
2021/12/15 10:49:31;;;;;;;9.10;1.90;;;;;;;9.31;100.00;100206.81;4907748;29;20122;-82
2021/12/15 10:52:01;;;;;;;7.63;2.70;;;;;;;9.21;100.00;100194.66;4928420;29;20039;-82
2021/12/15 10:54:34;;;;;;;5.18;1.88;;;;;;;9.31;100.00;100210.25;4897918;29;20482;-83
2021/12/15 10:57:16;;;;;;;7.03;1.58;;;;;;;9.41;100.00;100207.50;4925850;29;20501;-84
2021/12/15 10:59:49;;;;;;;8.45;1.80;;;;;;;9.36;100.00;100215.03;4925344;29;20059;-84
2021/12/15 11:02:21;;;;;;;5.87;2.87;;;;;;;9.39;100.00;100214.69;4897554;29;20682;-80
2021/12/15 11:04:53;;;;;;;5.95;1.80;;;;;;;9.39;100.00;100217.31;4895163;29;20317;-82
2021/12/15 11:07:30;;;;;;;3.45;1.70;;;;;;;9.40;100.00;100216.34;4930640;29;20122;-79
2021/12/15 11:09:55;;;;;;;7.80;1.88;;;;;;;9.41;100.00;100210.97;4907587;29;20546;-80
2021/12/15 11:12:31;;;;;;;10.70;2.00;;;;;;;9.48;100.00;100210.31;4929792;29;20110;-80
2021/12/15 11:15:01;;;;;;;5.70;2.15;;;;;;;9.44;100.00;100199.34;4932282;29;20138;-82
2021/12/15 11:17:40;;;;;;;6.03;1.77;;;;;;;9.19;100.00;100175.66;4930723;29;20031;-82
2021/12/15 11:20:12;;;;;;;5.07;1.63;;;;;;;9.45;100.00;100201.00;4910246;29;20032;-81
2021/12/15 11:22:44;;;;;;;9.18;1.80;;;;;;;9.50;100.00;100200.50;4927703;29;20079;-85
2021/12/15 11:25:28;;;;;;;4.85;1.55;;;;;;;9.54;100.00;100202.66;4933594;29;20043;-85
2021/12/15 11:28:03;;;;;;;8.95;2.10;;;;;;;9.48;100.00;100181.50;4916619;29;20546;-84
2021/12/15 11:30:48;;;;;;;2.60;1.38;;;;;;;9.52;100.00;100196.75;4896021;29;20028;-85
2021/12/15 11:33:28;;;;;;;8.15;1.88;;;;;;;9.63;100.00;100202.66;4934080;29;20439;-84
2021/12/15 11:35:56;;;;;;;4.75;2.08;;;;;;;9.65;100.00;100205.97;4930840;29;20068;-84
2021/12/15 11:38:35;;;;;;;8.48;2.03;;;;;;;9.61;100.00;100191.50;4902728;29;20044;-83
2021/12/15 11:41:06;;;;;;;9.73;2.20;;;;;;;9.68;100.00;100198.59;4912336;29;20122;-84
2021/12/15 11:43:40;;;;;;;5.50;1.92;;;;;;;9.70;100.00;100206.31;4921402;29;20038;-83
2021/12/15 11:46:34;;;;;;;8.55;2.22;;;;;;;9.74;100.00;100199.75;4912373;29;20040;-85
2021/12/15 11:49:13;;;;;;;4.05;1.90;;;;;;;9.85;100.00;100201.25;4907029;29;20086;-83
2021/12/15 11:51:54;;;;;;;5.47;2.25;;;;;;;9.89;100.00;100205.19;4920446;29;20064;-81
2021/12/15 11:54:25;;;;;;;5.15;1.92;;;;;;;9.92;100.00;100201.44;4925529;29;20039;-81
2021/12/15 11:56:56;;;;;;;6.18;2.05;;;;;;;9.91;100.00;100203.22;4908009;29;20036;-82
2021/12/15 11:59:26;;;;;;;7.53;2.30;;;;;;;9.90;100.00;100200.78;4928312;29;20027;-83
2021/12/15 12:01:54;;;;;;;8.48;2.33;;;;;;;10.02;100.00;100199.47;4926896;29;20032;-81
2021/12/15 12:04:25;;;;;;;11.63;2.28;;;;;;;9.93;100.00;100197.81;4926439;29;20040;-82
2021/12/15 12:06:57;;;;;;;6.65;2.15;;;;;;;9.96;100.00;100197.50;4909822;29;20396;-82
2021/12/15 12:09:24;;;;;;;8.45;1.80;;;;;;;9.92;100.00;100198.81;4911810;29;20100;-81
2021/12/15 12:11:55;;;;;;;8.13;2.20;;;;;;;9.90;100.00;100200.78;4906697;29;20450;-82
2021/12/15 12:17:36;;;;;;;11.60;2.25;;;;;;;10.04;100.00;100194.06;4868098;29;20045;-80
2021/12/15 12:20:10;;;;;;;7.20;2.10;;;;;;;10.03;100.00;100180.16;4911079;29;20043;-79
2021/12/15 12:22:37;;;;;;;10.35;2.35;;;;;;;10.00;100.00;100193.56;4925791;29;20031;-83
2021/12/15 12:25:08;;;;;;;5.43;2.22;;;;;;;10.03;100.00;100193.25;4907927;29;20043;-83
2021/12/15 12:27:35;;;;;;;5.13;2.08;;;;;;;9.88;100.00;100192.25;4898023;29;20896;-83
2021/12/15 12:30:08;;;;;;;4.82;2.40;;;;;;;9.98;100.00;100195.53;4893271;29;20050;-83
2021/12/15 12:32:36;;;;;;;9.18;1.98;;;;;;;9.93;100.00;100187.34;4930892;29;20529;-82
2021/12/15 12:35:04;;;;;;;5.20;1.98;;;;;;;9.96;100.00;100182.59;4924293;29;20098;-80
2021/12/15 12:37:30;;;;;;;7.18;1.83;;;;;;;10.04;100.00;100192.28;4925253;29;20084;-81
2021/12/15 12:39:58;;;;;;;6.85;2.38;;;;;;;9.96;100.00;100171.28;4906603;29;20383;-79
2021/12/15 12:42:38;;;;;;;6.78;2.10;;;;;;;9.99;100.00;100198.00;4927733;29;20055;-84
2021/12/15 12:45:12;;;;;;;6.85;2.28;;;;;;;9.97;100.00;100196.50;4909259;29;20027;-84
2021/12/15 12:47:46;;;;;;;4.55;1.77;;;;;;;10.05;100.00;100195.72;4910535;29;20087;-84
2021/12/15 13:01:13;;;;;;;5.50;2.03;;;;;;;10.07;100.00;100241.78;4906618;29;20028;-84